Time;durP1;ratioP1;P1;durP2;ratioP2;P2;SDS_P1;SDS_P2;PMS_P1;PMS_P2;Temp;Humidity;BMP_temperature;BMP_pressure;BME280_temperature;BME280_humidity;BME280_pressure;Samples;Min_cycle;Max_cycle;Signal;HPM_P1;HPM_P2
2023/03/18 00:02:04;;;;;;;17.70;9.20;;;14.10;99.90;;;;;;4864233;29;20041;-70
2023/03/18 00:04:30;;;;;;;14.48;9.35;;;14.20;99.90;;;;;;4863902;29;20439;-70
2023/03/18 00:06:56;;;;;;;16.13;9.02;;;14.20;99.90;;;;;;4864214;29;20114;-70
2023/03/18 00:09:22;;;;;;;17.20;8.50;;;14.20;99.90;;;;;;4864176;29;20140;-70
2023/03/18 00:11:48;;;;;;;23.92;9.15;;;14.10;99.90;;;;;;4864187;29;20105;-70
2023/03/18 00:14:14;;;;;;;13.25;8.07;;;14.10;99.90;;;;;;4864162;29;20124;-70
2023/03/18 00:16:40;;;;;;;16.98;9.00;;;14.00;99.90;;;;;;4863944;29;20045;-70
2023/03/18 00:19:06;;;;;;;14.88;8.15;;;14.00;99.90;;;;;;4864111;29;20437;-70
2023/03/18 00:21:33;;;;;;;17.70;8.10;;;14.00;99.90;;;;;;4864134;29;20037;-70
2023/03/18 00:23:59;;;;;;;15.15;8.77;;;14.10;99.90;;;;;;4864064;29;20082;-70
2023/03/18 00:26:26;;;;;;;14.50;8.52;;;14.20;99.90;;;;;;4864043;29;20054;-70
2023/03/18 00:28:54;;;;;;;14.70;8.18;;;14.00;99.90;;;;;;4864032;29;20069;-70
2023/03/18 00:31:20;;;;;;;15.20;8.65;;;13.80;99.90;;;;;;4863874;29;20049;-70
2023/03/18 00:33:46;;;;;;;15.35;9.02;;;13.80;99.90;;;;;;4847644;29;20182;-70
2023/03/18 00:36:13;;;;;;;17.35;8.98;;;13.70;99.90;;;;;;4831804;29;20385;-70
2023/03/18 00:38:44;;;;;;;16.55;9.13;;;13.60;99.90;;;;;;4866694;29;20049;-70
2023/03/18 00:41:11;;;;;;;16.20;8.63;;;13.50;99.90;;;;;;4867516;29;20129;-70
2023/03/18 00:43:51;;;;;;;21.35;8.80;;;13.30;99.90;;;;;;4851207;29;20056;-70
2023/03/18 00:46:20;;;;;;;16.23;9.10;;;13.40;99.90;;;;;;4851079;29;20066;-70
2023/03/18 00:48:47;;;;;;;20.15;9.77;;;13.30;99.90;;;;;;4881637;29;20065;-70
2023/03/18 00:51:15;;;;;;;22.17;10.00;;;13.40;99.90;;;;;;4867222;29;20141;-70
2023/03/18 00:53:47;;;;;;;19.08;9.68;;;13.40;99.90;;;;;;4866968;29;20052;-70
2023/03/18 00:56:14;;;;;;;22.48;10.65;;;13.30;99.90;;;;;;4866890;29;20420;-70
2023/03/18 00:58:40;;;;;;;22.45;10.50;;;13.10;99.90;;;;;;4867173;29;20041;-72
2023/03/18 01:01:07;;;;;;;17.98;9.95;;;13.00;99.90;;;;;;4850778;29;20420;-70
2023/03/18 01:03:34;;;;;;;16.33;10.07;;;13.10;99.90;;;;;;4867096;29;20116;-70
2023/03/18 01:06:01;;;;;;;20.35;10.77;;;13.10;99.90;;;;;;4866736;29;20137;-70
2023/03/18 01:08:29;;;;;;;21.38;11.10;;;13.10;99.90;;;;;;4867041;29;20313;-70
2023/03/18 01:10:55;;;;;;;23.80;12.13;;;13.10;99.90;;;;;;4866926;29;20321;-70
2023/03/18 01:13:22;;;;;;;18.88;10.88;;;12.70;99.90;;;;;;4866645;29;20428;-70
2023/03/18 01:15:49;;;;;;;22.65;11.27;;;12.50;99.90;;;;;;4850228;29;20079;-70
2023/03/18 01:18:15;;;;;;;19.20;10.95;;;12.50;99.90;;;;;;4866875;29;20045;-70
2023/03/18 01:20:43;;;;;;;21.52;12.40;;;12.40;99.90;;;;;;4866799;29;20105;-70
2023/03/18 01:23:09;;;;;;;24.08;12.93;;;12.50;99.90;;;;;;4866742;29;20057;-70
2023/03/18 01:25:35;;;;;;;26.23;13.43;;;12.50;99.90;;;;;;4850361;29;20313;-70
2023/03/18 01:28:00;;;;;;;23.45;13.90;;;12.50;99.90;;;;;;4866675;29;20062;-70
2023/03/18 01:30:27;;;;;;;27.25;13.88;;;12.40;99.90;;;;;;4866323;29;20124;-69
2023/03/18 01:32:53;;;;;;;25.80;14.65;;;12.40;99.90;;;;;;4866610;29;20094;-70
2023/03/18 01:35:19;;;;;;;30.35;16.55;;;12.50;99.90;;;;;;4864713;29;20037;-70
2023/03/18 01:37:45;;;;;;;23.33;15.38;;;12.60;99.90;;;;;;4863982;29;20128;-70
2023/03/18 01:40:12;;;;;;;27.63;16.40;;;12.60;99.90;;;;;;4866457;29;20133;-70
2023/03/18 01:42:38;;;;;;;32.58;17.70;;;12.50;99.90;;;;;;4866178;29;20325;-70
2023/03/18 01:45:18;;;;;;;28.50;17.40;;;12.30;99.90;;;;;;4866401;29;20045;-70
2023/03/18 01:47:45;;;;;;;28.17;17.30;;;12.30;99.90;;;;;;4866081;29;20105;-70
2023/03/18 01:50:14;;;;;;;35.92;19.02;;;12.30;99.90;;;;;;4866144;29;20046;-70
2023/03/18 01:52:41;;;;;;;35.00;19.50;;;12.30;99.90;;;;;;4866379;29;20428;-70
2023/03/18 01:55:21;;;;;;;34.83;20.20;;;12.30;99.90;;;;;;4866226;29;20363;-70
2023/03/18 01:57:49;;;;;;;43.08;20.98;;;12.20;99.90;;;;;;4849822;29;20120;-69
2023/03/18 02:00:15;;;;;;;31.42;19.60;;;12.30;99.90;;;;;;4865854;29;20452;-70
2023/03/18 02:02:44;;;;;;;35.25;21.38;;;12.30;99.90;;;;;;4866066;29;20041;-69
2023/03/18 02:05:12;;;;;;;41.67;22.20;;;12.20;99.90;;;;;;4865755;29;20126;-70
2023/03/18 02:07:41;;;;;;;36.17;21.48;;;12.10;99.90;;;;;;4865996;29;20053;-69
2023/03/18 02:10:23;;;;;;;32.70;20.25;;;12.10;99.90;;;;;;4865890;29;20041;-70
2023/03/18 02:12:55;;;;;;;38.53;21.73;;;12.30;99.90;;;;;;4865922;29;20049;-70
2023/03/18 02:15:23;;;;;;;35.47;19.77;;;12.40;99.90;;;;;;4865611;29;20432;-70
2023/03/18 02:18:04;;;;;;;29.63;18.48;;;12.60;99.90;;;;;;4865765;29;20081;-70
2023/03/18 02:20:45;;;;;;;37.00;21.33;;;12.80;99.90;;;;;;4865521;29;20104;-70
2023/03/18 02:23:23;;;;;;;38.90;22.67;;;12.80;99.90;;;;;;4849076;29;20065;-70
2023/03/18 02:26:05;;;;;;;36.42;23.25;;;12.70;99.90;;;;;;4849045;29;20053;-70
2023/03/18 02:28:32;;;;;;;41.05;24.33;;;12.60;99.90;;;;;;4848988;29;20091;-70
2023/03/18 02:31:02;;;;;;;38.20;23.63;;;12.50;99.90;;;;;;4865536;29;20052;-70
2023/03/18 02:33:35;;;;;;;42.08;25.30;;;12.40;99.90;;;;;;4849162;29;20038;-71
2023/03/18 02:36:05;;;;;;;34.22;20.58;;;12.40;99.90;;;;;;4863014;29;20049;-68
2023/03/18 02:38:31;;;;;;;44.55;23.73;;;12.40;99.90;;;;;;4865512;29;20110;-70
2023/03/18 02:40:57;;;;;;;36.47;22.67;;;12.50;99.90;;;;;;4865380;29;20076;-70
2023/03/18 02:43:31;;;;;;;38.28;24.45;;;12.60;99.90;;;;;;4865371;29;20078;-70
2023/03/18 02:46:02;;;;;;;34.58;21.58;;;12.60;99.90;;;;;;4865285;29;20318;-70
2023/03/18 02:48:36;;;;;;;39.47;24.90;;;12.70;99.90;;;;;;4848632;29;20431;-70
2023/03/18 02:51:03;;;;;;;35.03;21.67;;;12.80;99.90;;;;;;4865214;29;20128;-70
2023/03/18 02:53:29;;;;;;;41.60;25.65;;;12.80;99.90;;;;;;4848501;29;20553;-70
2023/03/18 02:55:55;;;;;;;46.10;26.38;;;12.80;99.90;;;;;;4865145;29;20101;-70
2023/03/18 02:58:21;;;;;;;44.13;27.05;;;12.70;99.90;;;;;;4865082;29;20499;-70
2023/03/18 03:00:47;;;;;;;43.75;27.38;;;12.60;99.90;;;;;;4864076;29;20045;-70
2023/03/18 03:03:13;;;;;;;42.13;24.65;;;12.60;99.90;;;;;;4865026;29;20133;-70
2023/03/18 03:05:39;;;;;;;36.80;23.55;;;12.60;99.90;;;;;;4864682;29;20083;-70
2023/03/18 03:08:05;;;;;;;35.00;23.52;;;12.60;99.90;;;;;;4848616;29;20049;-70
2023/03/18 03:10:31;;;;;;;37.17;23.15;;;12.60;99.90;;;;;;4864549;29;20037;-70
2023/03/18 03:12:57;;;;;;;33.47;22.15;;;12.70;99.90;;;;;;4864979;29;20078;-70
2023/03/18 03:15:23;;;;;;;40.17;24.42;;;12.70;99.90;;;;;;4864810;29;20042;-70
2023/03/18 03:17:48;;;;;;;42.20;26.10;;;12.70;99.90;;;;;;4848371;29;20061;-70
2023/03/18 03:20:17;;;;;;;37.05;22.08;;;12.60;99.90;;;;;;4864789;29;20048;-70
2023/03/18 03:22:43;;;;;;;35.17;22.85;;;12.60;99.90;;;;;;4864738;29;20052;-70
2023/03/18 03:25:10;;;;;;;35.72;20.80;;;12.50;99.90;;;;;;4864719;29;20073;-70
2023/03/18 03:27:36;;;;;;;37.03;22.55;;;12.60;99.90;;;;;;4864654;29;20327;-70
2023/03/18 03:30:08;;;;;;;39.10;23.40;;;12.60;99.90;;;;;;4864564;29;20128;-70
2023/03/18 03:32:34;;;;;;;39.35;22.13;;;12.60;99.90;;;;;;4864686;29;20328;-70
2023/03/18 03:35:01;;;;;;;39.38;22.50;;;12.50;99.90;;;;;;4864247;29;20049;-70
2023/03/18 03:37:27;;;;;;;35.88;22.42;;;12.50;99.90;;;;;;4864211;29;20109;-70
2023/03/18 03:39:52;;;;;;;36.22;22.42;;;12.50;99.90;;;;;;4864544;29;20077;-70
2023/03/18 03:42:18;;;;;;;36.92;21.90;;;12.50;99.90;;;;;;4832827;29;20057;-70
2023/03/18 03:44:45;;;;;;;39.58;24.38;;;12.60;99.90;;;;;;4847792;29;20045;-70
2023/03/18 03:47:11;;;;;;;35.58;22.58;;;12.60;99.90;;;;;;4864441;29;20045;-70
2023/03/18 03:49:37;;;;;;;34.08;23.05;;;12.60;99.90;;;;;;4864290;29;20128;-70
2023/03/18 03:52:04;;;;;;;35.60;24.05;;;12.60;99.90;;;;;;4864377;29;20112;-70
2023/03/18 03:54:30;;;;;;;37.80;23.77;;;12.60;99.90;;;;;;4864393;29;20048;-70
2023/03/18 03:56:56;;;;;;;52.63;27.95;;;12.60;99.90;;;;;;4847744;29;20053;-70
2023/03/18 03:59:21;;;;;;;45.17;25.73;;;12.60;99.90;;;;;;4864282;29;20389;-70
2023/03/18 04:01:47;;;;;;;47.72;28.45;;;12.60;99.90;;;;;;4864301;29;20060;-70
2023/03/18 04:04:13;;;;;;;55.13;32.08;;;12.60;99.90;;;;;;4863639;29;20045;-75
2023/03/18 04:06:38;;;;;;;49.25;31.15;;;12.60;99.90;;;;;;4864281;29;20093;-70
2023/03/18 04:09:04;;;;;;;61.33;33.17;;;12.50;99.90;;;;;;4864162;29;20045;-70
2023/03/18 04:11:30;;;;;;;46.53;27.75;;;12.30;99.90;;;;;;4865191;29;20052;-70
2023/03/18 04:13:56;;;;;;;58.17;32.55;;;12.20;99.90;;;;;;4868006;29;20065;-70
2023/03/18 04:16:22;;;;;;;45.15;27.50;;;12.20;99.90;;;;;;4867950;29;20508;-70
2023/03/18 04:18:47;;;;;;;55.13;32.00;;;12.20;99.90;;;;;;4867892;29;20045;-70
2023/03/18 04:21:13;;;;;;;53.47;33.47;;;12.20;99.90;;;;;;4867807;29;20072;-71
2023/03/18 04:23:39;;;;;;;49.58;30.13;;;12.20;99.90;;;;;;4867824;29;20177;-70
2023/03/18 04:26:05;;;;;;;58.83;33.22;;;12.10;99.90;;;;;;4867803;29;20081;-70
2023/03/18 04:28:31;;;;;;;57.55;34.63;;;12.00;99.90;;;;;;4867729;29;20046;-70
2023/03/18 04:30:57;;;;;;;62.35;34.95;;;11.90;99.90;;;;;;4867628;29;20080;-70
2023/03/18 04:33:23;;;;;;;50.65;30.60;;;11.90;99.90;;;;;;4867641;29;20037;-70
2023/03/18 04:35:49;;;;;;;51.75;31.15;;;11.90;99.90;;;;;;4867273;29;20090;-70
2023/03/18 04:38:15;;;;;;;46.90;29.10;;;12.00;99.90;;;;;;4847757;29;20506;-70
2023/03/18 04:40:41;;;;;;;40.38;26.25;;;12.10;99.90;;;;;;4848804;29;20073;-70
2023/03/18 04:43:09;;;;;;;51.40;29.95;;;12.10;99.90;;;;;;4849344;29;20045;-70
2023/03/18 04:45:35;;;;;;;47.92;27.63;;;12.10;99.90;;;;;;4848789;29;20121;-70
2023/03/18 04:48:01;;;;;;;52.78;30.75;;;12.20;99.90;;;;;;4848702;29;20099;-70
2023/03/18 04:50:27;;;;;;;60.55;33.00;;;12.20;99.90;;;;;;4848590;29;20050;-71
2023/03/18 04:52:53;;;;;;;66.35;33.05;;;12.20;99.90;;;;;;4848928;29;20041;-70
2023/03/18 04:55:20;;;;;;;59.80;32.80;;;12.00;99.90;;;;;;4847732;29;20109;-72
2023/03/18 04:57:47;;;;;;;61.00;33.75;;;11.70;99.90;;;;;;4848836;29;20069;-70
2023/03/18 05:00:16;;;;;;;53.47;30.63;;;11.70;99.90;;;;;;4848805;29;20057;-70
2023/03/18 05:02:42;;;;;;;49.72;28.48;;;11.70;99.90;;;;;;4847451;29;20494;-70
2023/03/18 05:05:09;;;;;;;51.80;28.20;;;11.70;99.90;;;;;;4848358;29;20049;-70
2023/03/18 05:07:35;;;;;;;49.75;28.27;;;11.90;99.90;;;;;;4848628;29;20131;-70
2023/03/18 05:10:05;;;;;;;45.70;26.83;;;12.00;99.90;;;;;;4848325;29;20065;-70
2023/03/18 05:12:32;;;;;;;39.72;24.38;;;12.10;99.90;;;;;;4848857;29;20046;-70
2023/03/18 05:14:57;;;;;;;39.05;24.30;;;12.10;99.90;;;;;;4848546;29;20048;-70
2023/03/18 05:17:24;;;;;;;46.05;26.92;;;12.20;99.90;;;;;;4848502;29;20488;-70
2023/03/18 05:19:50;;;;;;;48.67;25.50;;;12.20;99.90;;;;;;4848486;29;20042;-70
2023/03/18 05:22:18;;;;;;;39.08;24.48;;;12.20;99.90;;;;;;4848406;29;20041;-70
2023/03/18 05:24:44;;;;;;;37.53;23.17;;;12.30;99.90;;;;;;4847607;29;20077;-70
2023/03/18 05:27:12;;;;;;;38.38;23.70;;;12.30;99.90;;;;;;4848162;29;20327;-70
2023/03/18 05:29:41;;;;;;;39.78;22.50;;;12.30;99.90;;;;;;4848137;29;20362;-70
2023/03/18 05:32:08;;;;;;;46.72;26.85;;;12.20;99.90;;;;;;4847794;29;20428;-70
2023/03/18 05:34:38;;;;;;;42.58;23.73;;;12.10;99.90;;;;;;4847406;29;20038;-70
2023/03/18 05:37:05;;;;;;;41.28;22.15;;;12.10;99.90;;;;;;4856736;29;20057;-70
2023/03/18 05:39:32;;;;;;;37.47;23.02;;;12.10;99.90;;;;;;4867233;29;20049;-70
2023/03/18 05:41:59;;;;;;;39.03;22.17;;;12.00;99.90;;;;;;4866416;29;20050;-70
2023/03/18 05:44:25;;;;;;;47.08;27.02;;;11.90;99.90;;;;;;4866231;29;20046;-70
2023/03/18 05:46:51;;;;;;;53.80;28.98;;;12.00;99.90;;;;;;4866400;29;20097;-71
2023/03/18 05:49:20;;;;;;;57.20;29.45;;;12.10;99.90;;;;;;4866070;29;20041;-71
2023/03/18 05:51:46;;;;;;;48.65;28.23;;;12.00;99.90;;;;;;4865935;29;20132;-70
2023/03/18 05:54:13;;;;;;;59.78;31.33;;;11.90;99.90;;;;;;4849820;29;20060;-70
2023/03/18 05:56:39;;;;;;;63.80;32.30;;;11.70;99.90;;;;;;4866200;29;20041;-70
2023/03/18 05:59:06;;;;;;;65.88;33.47;;;11.60;99.90;;;;;;4866196;29;20037;-70
2023/03/18 06:01:32;;;;;;;51.08;29.25;;;11.60;99.90;;;;;;4865788;29;20436;-70
2023/03/18 06:03:59;;;;;;;68.75;33.60;;;11.60;99.90;;;;;;4866052;29;20041;-70
2023/03/18 06:06:25;;;;;;;75.78;37.58;;;11.70;99.90;;;;;;4865438;29;20045;-70
2023/03/18 06:08:52;;;;;;;67.55;34.53;;;11.70;99.90;;;;;;4865990;29;20037;-70
2023/03/18 06:11:18;;;;;;;82.88;37.75;;;11.60;99.90;;;;;;4865562;29;20432;-70
2023/03/18 06:13:44;;;;;;;78.72;38.53;;;11.70;99.90;;;;;;4865880;29;20078;-70
2023/03/18 06:16:10;;;;;;;76.40;37.50;;;11.80;99.90;;;;;;4865864;29;20157;-70
2023/03/18 06:18:36;;;;;;;63.70;34.40;;;11.80;99.90;;;;;;4865817;29;20037;-70
2023/03/18 06:21:02;;;;;;;73.72;36.60;;;11.80;99.90;;;;;;4849442;29;20336;-70
2023/03/18 06:23:28;;;;;;;75.65;38.13;;;11.80;99.90;;;;;;4849069;29;20384;-70
2023/03/18 06:25:54;;;;;;;81.80;40.35;;;11.80;99.90;;;;;;4865363;29;20052;-70
2023/03/18 06:28:20;;;;;;;62.38;33.70;;;11.90;99.90;;;;;;4865642;29;20046;-70
2023/03/18 06:30:46;;;;;;;60.28;34.28;;;11.90;99.90;;;;;;4865549;29;20109;-70
2023/03/18 06:33:12;;;;;;;67.22;35.95;;;12.10;99.90;;;;;;4865260;29;20103;-70
2023/03/18 06:35:38;;;;;;;58.13;32.90;;;12.20;99.90;;;;;;4864964;29;20048;-70
2023/03/18 06:38:04;;;;;;;69.88;36.55;;;12.20;99.90;;;;;;4865106;29;20058;-70
2023/03/18 06:40:30;;;;;;;55.35;31.27;;;12.30;99.90;;;;;;4865430;29;20124;-70
2023/03/18 06:42:56;;;;;;;68.18;34.35;;;12.30;99.90;;;;;;4865383;29;20125;-70
2023/03/18 06:45:21;;;;;;;57.63;32.20;;;12.30;99.90;;;;;;4849013;29;20114;-70
2023/03/18 06:47:48;;;;;;;52.55;30.65;;;12.40;99.90;;;;;;4865306;29;20084;-70
2023/03/18 06:50:14;;;;;;;58.72;32.03;;;12.40;99.90;;;;;;4848544;29;20407;-70
2023/03/18 06:52:40;;;;;;;60.08;33.80;;;12.50;99.90;;;;;;4848823;29;20124;-70
2023/03/18 06:55:06;;;;;;;54.95;30.80;;;12.60;99.90;;;;;;4865185;29;20328;-70
2023/03/18 06:57:33;;;;;;;47.45;28.58;;;12.50;99.90;;;;;;4865123;29;20069;-70
2023/03/18 06:59:58;;;;;;;56.92;31.17;;;12.60;99.90;;;;;;4865107;29;20041;-70
2023/03/18 07:02:26;;;;;;;48.38;29.17;;;12.70;99.90;;;;;;4833508;29;20105;-70
2023/03/18 07:04:53;;;;;;;48.38;28.58;;;12.60;99.90;;;;;;4864739;29;20037;-70
2023/03/18 07:07:21;;;;;;;50.10;27.98;;;12.60;99.90;;;;;;4864959;29;20308;-70
2023/03/18 07:09:46;;;;;;;48.22;26.35;;;12.70;99.90;;;;;;4864643;29;20086;-70
2023/03/18 07:12:13;;;;;;;48.25;26.17;;;12.70;99.90;;;;;;4864941;29;20134;-70
2023/03/18 07:14:39;;;;;;;41.97;25.00;;;12.70;99.90;;;;;;4864853;29;20045;-70
2023/03/18 07:17:06;;;;;;;50.95;29.13;;;12.70;99.90;;;;;;4864537;29;20444;-70
2023/03/18 07:19:32;;;;;;;42.83;26.38;;;12.80;99.90;;;;;;4864518;29;20339;-70
2023/03/18 07:21:59;;;;;;;55.35;30.15;;;12.90;99.90;;;;;;4864781;29;20057;-69
2023/03/18 07:24:25;;;;;;;55.08;30.27;;;13.00;99.90;;;;;;4864435;29;20484;-70
2023/03/18 07:26:52;;;;;;;52.67;30.17;;;13.10;99.90;;;;;;4848091;29;20436;-69
2023/03/18 07:29:18;;;;;;;43.97;27.67;;;13.00;99.90;;;;;;4864403;29;20056;-69
2023/03/18 07:31:44;;;;;;;44.45;27.70;;;12.90;99.90;;;;;;4864567;29;20063;-70
2023/03/18 07:34:11;;;;;;;50.60;29.00;;;13.10;99.90;;;;;;4864608;29;20391;-70
2023/03/18 07:36:37;;;;;;;48.92;27.40;;;13.20;99.90;;;;;;4864060;29;20405;-69
2023/03/18 07:39:04;;;;;;;52.17;31.33;;;13.20;99.90;;;;;;4864342;29;20049;-69
2023/03/18 07:41:29;;;;;;;50.22;30.58;;;13.20;99.90;;;;;;4864474;29;20060;-69
2023/03/18 07:43:55;;;;;;;57.97;31.20;;;13.20;99.90;;;;;;4864597;29;20124;-69
2023/03/18 07:46:21;;;;;;;52.88;30.13;;;13.20;99.90;;;;;;4864123;29;20052;-69
2023/03/18 07:48:47;;;;;;;53.30;31.52;;;13.00;99.90;;;;;;4864156;29;20505;-69
2023/03/18 07:51:14;;;;;;;50.08;29.88;;;12.90;99.90;;;;;;4864255;29;20128;-70
2023/03/18 07:53:41;;;;;;;60.53;32.90;;;12.90;99.90;;;;;;4864385;29;20048;-69
2023/03/18 07:56:08;;;;;;;55.70;31.48;;;13.10;99.90;;;;;;4847759;29;20433;-69
2023/03/18 07:58:34;;;;;;;46.15;28.13;;;13.20;99.90;;;;;;4864327;29;20029;-69
2023/03/18 08:01:00;;;;;;;55.22;32.38;;;13.20;99.90;;;;;;4863976;29;20101;-69
2023/03/18 08:03:27;;;;;;;50.33;30.60;;;13.40;99.90;;;;;;4863311;29;20132;-69
2023/03/18 08:05:53;;;;;;;57.05;33.20;;;13.40;99.90;;;;;;4864046;29;20116;-69
2023/03/18 08:08:18;;;;;;;56.92;34.00;;;13.40;99.90;;;;;;4864204;29;20045;-69
2023/03/18 08:10:44;;;;;;;55.78;31.63;;;13.40;99.90;;;;;;4864132;29;20049;-69
2023/03/18 08:13:11;;;;;;;53.33;30.60;;;13.50;99.90;;;;;;4864155;29;20041;-69
2023/03/18 08:15:38;;;;;;;49.45;31.42;;;13.50;99.90;;;;;;4869285;29;20207;-69
2023/03/18 08:18:03;;;;;;;51.70;31.33;;;13.60;99.90;;;;;;4864617;29;20073;-69
2023/03/18 08:20:29;;;;;;;48.92;30.73;;;13.50;99.90;;;;;;4863138;29;20077;-69
2023/03/18 08:22:55;;;;;;;47.28;29.30;;;13.40;99.90;;;;;;4864100;29;20120;-69
2023/03/18 08:25:25;;;;;;;47.35;27.10;;;13.50;99.90;;;;;;4864032;29;20169;-69
2023/03/18 08:27:51;;;;;;;39.83;25.98;;;13.50;99.90;;;;;;4847750;29;20073;-69
2023/03/18 08:30:17;;;;;;;39.88;26.50;;;13.50;99.90;;;;;;4863983;29;20102;-69
2023/03/18 08:32:43;;;;;;;43.22;25.67;;;13.50;99.90;;;;;;4863694;29;20421;-69
2023/03/18 08:35:10;;;;;;;45.75;26.80;;;13.50;99.90;;;;;;4863335;29;20049;-69
2023/03/18 08:37:37;;;;;;;36.92;26.30;;;13.30;99.90;;;;;;4860047;29;20375;-69
2023/03/18 08:40:04;;;;;;;38.33;23.35;;;13.40;99.90;;;;;;4845224;29;20434;-69
2023/03/18 08:42:30;;;;;;;49.05;29.05;;;13.40;99.90;;;;;;4845213;29;20049;-69
2023/03/18 08:44:56;;;;;;;35.53;24.02;;;13.50;99.90;;;;;;4845369;29;20046;-69
2023/03/18 08:47:23;;;;;;;43.03;25.80;;;13.50;99.90;;;;;;4845172;29;20045;-69
2023/03/18 08:49:50;;;;;;;40.45;25.17;;;13.60;99.90;;;;;;4845139;29;20429;-67
2023/03/18 08:52:17;;;;;;;38.15;23.88;;;13.70;99.90;;;;;;4844156;29;20107;-67
2023/03/18 08:54:42;;;;;;;42.40;26.15;;;13.80;99.90;;;;;;4845410;29;20061;-67
2023/03/18 08:57:09;;;;;;;46.15;28.80;;;13.80;99.90;;;;;;4845351;29;20046;-67
2023/03/18 08:59:35;;;;;;;45.05;28.17;;;13.90;99.90;;;;;;4847968;29;20328;-67
2023/03/18 09:02:02;;;;;;;39.42;25.60;;;14.00;99.90;;;;;;4848794;29;20046;-67
2023/03/18 09:04:28;;;;;;;40.35;25.20;;;14.00;99.90;;;;;;4848468;29;20058;-66
2023/03/18 09:06:54;;;;;;;47.50;28.50;;;13.90;99.90;;;;;;4848275;29;20054;-67
2023/03/18 09:09:19;;;;;;;46.30;26.77;;;14.00;99.90;;;;;;4848391;29;20068;-67
2023/03/18 09:11:46;;;;;;;47.22;28.73;;;13.90;99.90;;;;;;4848234;29;20038;-68
2023/03/18 09:14:12;;;;;;;41.53;27.23;;;13.80;99.90;;;;;;4847645;29;20061;-68
2023/03/18 09:16:44;;;;;;;43.00;26.20;;;13.80;99.90;;;;;;4848525;29;20042;-68
2023/03/18 09:19:11;;;;;;;44.28;27.13;;;13.60;99.90;;;;;;4848508;29;20038;-68
2023/03/18 09:21:37;;;;;;;44.90;28.08;;;13.50;99.90;;;;;;4848427;29;20318;-68
2023/03/18 09:24:03;;;;;;;38.53;26.45;;;13.40;99.90;;;;;;4848365;29;20065;-68
2023/03/18 09:26:29;;;;;;;52.08;31.13;;;13.50;99.90;;;;;;4848039;29;20046;-68
2023/03/18 09:28:54;;;;;;;49.20;31.20;;;13.50;99.90;;;;;;4848360;29;20053;-68
2023/03/18 09:31:20;;;;;;;43.75;28.25;;;13.70;99.90;;;;;;4847846;29;20340;-68
2023/03/18 09:33:46;;;;;;;44.80;29.35;;;13.80;99.90;;;;;;4846978;29;20050;-68
2023/03/18 09:36:12;;;;;;;40.03;26.92;;;14.00;99.90;;;;;;4849092;29;20046;-68
2023/03/18 09:38:38;;;;;;;40.70;27.90;;;14.10;99.90;;;;;;4866603;29;20064;-69
2023/03/18 09:41:11;;;;;;;45.17;27.45;;;14.10;99.90;;;;;;4866792;29;20049;-68
2023/03/18 09:44:07;;;;;;;41.40;26.20;;;14.20;99.90;;;;;;4867020;29;20446;-68
2023/03/18 09:46:32;;;;;;;45.60;27.60;;;14.10;99.90;;;;;;4866210;29;20101;-67
2023/03/18 09:49:28;;;;;;;43.60;28.10;;;14.10;99.90;;;;;;4866358;29;20049;-68
2023/03/18 09:52:09;;;;;;;43.45;27.55;;;14.40;99.90;;;;;;4866251;29;20045;-68
2023/03/18 09:54:46;;;;;;;44.95;28.63;;;14.60;99.90;;;;;;4866316;29;20306;-68
2023/03/18 09:57:21;;;;;;;46.55;29.27;;;14.70;99.90;;;;;;4866241;29;20076;-68
2023/03/18 09:59:59;;;;;;;43.17;27.30;;;14.60;99.90;;;;;;4866286;29;20045;-68
2023/03/18 10:02:49;;;;;;;44.42;27.42;;;14.70;99.90;;;;;;4849503;29;20098;-72
2023/03/18 10:05:25;;;;;;;45.25;26.73;;;14.70;99.90;;;;;;4864999;29;20160;-68
2023/03/18 10:07:56;;;;;;;43.78;26.92;;;14.90;99.90;;;;;;4850160;29;20050;-68
2023/03/18 10:10:28;;;;;;;45.35;28.17;;;14.90;99.90;;;;;;4849212;29;20084;-67
2023/03/18 10:13:06;;;;;;;43.90;27.80;;;15.00;99.90;;;;;;4865976;29;20057;-67
2023/03/18 10:15:52;;;;;;;40.08;26.30;;;14.80;99.90;;;;;;4865896;29;20391;-67
2023/03/18 10:18:36;;;;;;;41.55;27.88;;;15.00;99.90;;;;;;4865915;29;20045;-67
2023/03/18 10:21:17;;;;;;;40.95;26.67;;;15.50;99.90;;;;;;4869743;29;20097;-68
2023/03/18 10:23:42;;;;;;;38.17;25.48;;;15.50;99.90;;;;;;4865656;29;20049;-69
2023/03/18 10:26:25;;;;;;;43.10;28.35;;;15.70;99.90;;;;;;4872397;29;20339;-68
2023/03/18 10:29:12;;;;;;;40.58;25.88;;;16.00;99.90;;;;;;4884097;29;20104;-68
2023/03/18 10:32:12;;;;;;;38.00;24.77;;;16.20;99.90;;;;;;4874907;29;20052;-68
2023/03/18 10:34:41;;;;;;;35.20;24.08;;;16.60;99.90;;;;;;4883399;29;20051;-68
2023/03/18 10:37:37;;;;;;;34.85;23.33;;;16.60;99.90;;;;;;4868246;29;20109;-68
2023/03/18 10:40:14;;;;;;;33.10;22.27;;;16.90;99.90;;;;;;4815293;29;20056;-68
2023/03/18 10:42:40;;;;;;;33.30;22.80;;;16.80;99.90;;;;;;4830461;29;20053;-67
2023/03/18 10:45:20;;;;;;;35.70;23.35;;;16.60;99.90;;;;;;4830290;29;20053;-67
2023/03/18 10:48:10;;;;;;;30.98;22.17;;;16.40;99.90;;;;;;4845095;29;20125;-67
2023/03/18 10:50:45;;;;;;;35.05;22.45;;;16.40;99.90;;;;;;4845998;29;20058;-67
2023/03/18 10:53:35;;;;;;;32.47;22.55;;;16.10;99.90;;;;;;4855819;29;20056;-68
2023/03/18 10:56:10;;;;;;;36.13;21.38;;;16.10;99.90;;;;;;4864101;29;20045;-69
2023/03/18 10:58:40;;;;;;;35.78;23.77;;;16.10;99.90;;;;;;4865091;29;20049;-67
2023/03/18 11:01:09;;;;;;;33.55;22.70;;;16.20;99.90;;;;;;4865161;29;20057;-67
2023/03/18 11:03:57;;;;;;;33.95;21.17;;;16.20;99.90;;;;;;4846672;29;20060;-68
2023/03/18 11:06:32;;;;;;;34.75;21.38;;;16.20;99.90;;;;;;4835529;29;20458;-67
2023/03/18 11:09:07;;;;;;;31.42;20.80;;;16.40;99.90;;;;;;4832310;29;20065;-67
2023/03/18 11:11:33;;;;;;;34.67;22.38;;;16.30;99.90;;;;;;4863673;29;20424;-67
2023/03/18 11:14:03;;;;;;;32.13;21.13;;;16.30;99.90;;;;;;4864729;29;20041;-68
2023/03/18 11:16:40;;;;;;;33.88;21.10;;;16.40;99.90;;;;;;4848712;29;20048;-67
2023/03/18 11:19:38;;;;;;;26.65;18.42;;;16.50;99.90;;;;;;4848257;29;20061;-68
2023/03/18 11:22:06;;;;;;;25.45;16.63;;;16.80;99.90;;;;;;4864104;29;20045;-68
2023/03/18 11:24:38;;;;;;;27.27;17.33;;;16.80;99.90;;;;;;4853511;29;20053;-68
2023/03/18 11:27:24;;;;;;;28.20;18.45;;;16.70;99.90;;;;;;4852700;29;20055;-68
2023/03/18 11:29:54;;;;;;;27.30;17.87;;;16.50;99.90;;;;;;4864519;29;20332;-68
2023/03/18 11:32:27;;;;;;;28.10;18.58;;;16.50;99.90;;;;;;4864103;29;20052;-67
2023/03/18 11:34:59;;;;;;;28.75;18.02;;;16.30;99.90;;;;;;4864035;29;20033;-66
2023/03/18 11:37:40;;;;;;;28.38;18.48;;;16.40;99.90;;;;;;4855792;29;20061;-69
2023/03/18 11:40:27;;;;;;;28.60;18.55;;;16.30;99.90;;;;;;4841313;29;20436;-67
2023/03/18 11:42:56;;;;;;;30.65;20.27;;;16.10;99.90;;;;;;4864028;29;20048;-67
2023/03/18 11:45:25;;;;;;;27.98;18.23;;;16.10;99.90;;;;;;4863854;29;20432;-67
2023/03/18 11:47:51;;;;;;;25.45;16.90;;;16.50;99.90;;;;;;4864177;29;20056;-67
2023/03/18 11:50:20;;;;;;;24.30;17.35;;;16.90;99.90;;;;;;4864125;29;20241;-67
2023/03/18 11:53:16;;;;;;;27.15;16.48;;;16.40;99.90;;;;;;4863850;29;20150;-72
2023/03/18 11:55:54;;;;;;;26.50;16.48;;;15.90;99.90;;;;;;4856523;29;20042;-67
2023/03/18 11:58:39;;;;;;;26.10;16.05;;;16.30;99.90;;;;;;4845659;29;20038;-67
2023/03/18 12:01:41;;;;;;;23.60;15.65;;;16.80;99.90;;;;;;4851767;29;20405;-67
2023/03/18 12:04:26;;;;;;;25.52;15.52;;;17.00;99.90;;;;;;4847484;29;20057;-67
2023/03/18 12:07:00;;;;;;;24.70;16.75;;;17.30;99.90;;;;;;4844120;29;20401;-70
2023/03/18 12:09:55;;;;;;;21.98;14.90;;;17.40;99.90;;;;;;4845645;29;20052;-67
2023/03/18 12:12:33;;;;;;;23.13;15.05;;;17.90;99.90;;;;;;4829423;29;20054;-67
2023/03/18 12:15:28;;;;;;;23.10;15.25;;;18.30;99.90;;;;;;4845499;29;20460;-67
2023/03/18 12:17:58;;;;;;;23.77;14.98;;;19.10;99.90;;;;;;4845458;29;20053;-67
2023/03/18 12:20:45;;;;;;;24.65;14.93;;;19.10;99.90;;;;;;4845429;29;20137;-67
2023/03/18 12:23:26;;;;;;;24.65;14.57;;;19.30;99.90;;;;;;4845457;29;20178;-68
2023/03/18 12:26:11;;;;;;;19.55;13.48;;;19.00;99.90;;;;;;4845683;29;20054;-67
2023/03/18 12:29:01;;;;;;;21.00;13.63;;;19.50;99.90;;;;;;4845501;29;20053;-67
2023/03/18 12:31:39;;;;;;;21.42;13.20;;;18.90;99.90;;;;;;4845318;29;20046;-67
2023/03/18 12:34:17;;;;;;;22.95;14.23;;;18.40;99.90;;;;;;4879743;29;20114;-69
2023/03/18 12:37:02;;;;;;;19.00;12.00;;;18.00;99.90;;;;;;4889944;29;20052;-69
2023/03/18 12:40:00;;;;;;;20.50;12.85;;;18.10;99.90;;;;;;4904968;29;20449;-68
2023/03/18 12:42:36;;;;;;;18.25;11.32;;;18.20;99.90;;;;;;4904919;29;20128;-67